createdAt,value
2016-12-03T00:02:27.680Z,95.93
2016-12-03T00:05:12.802Z,95.55
2016-12-03T00:06:12.821Z,95.55
2016-12-03T00:07:12.837Z,95.64
2016-12-03T00:08:12.849Z,95.55
2016-12-03T00:09:12.865Z,95.83
2016-12-03T00:10:12.879Z,95.83
2016-12-03T00:11:12.900Z,95.55
2016-12-03T00:12:12.908Z,95.93
2016-12-03T00:13:12.927Z,95.74
2016-12-03T00:14:12.939Z,95.55
2016-12-03T00:15:12.956Z,95.74
2016-12-03T00:16:12.976Z,95.93
2016-12-03T00:17:27.911Z,95.93
2016-12-03T00:18:13.004Z,95.83
2016-12-03T00:20:13.036Z,95.64
2016-12-03T00:21:13.049Z,95.74
2016-12-03T00:22:13.062Z,95.64
2016-12-03T00:23:13.077Z,95.83
2016-12-03T00:24:13.093Z,95.74
2016-12-03T00:25:13.105Z,96.21
2016-12-03T00:26:13.122Z,95.83
2016-12-03T00:27:13.144Z,95.83
2016-12-03T00:28:13.157Z,95.64
2016-12-03T00:29:13.167Z,95.64
2016-12-03T00:30:13.185Z,95.74
2016-12-03T00:32:13.217Z,96.21
2016-12-03T00:33:13.230Z,96.4
2016-12-03T00:36:13.276Z,96.21
2016-12-03T00:37:13.288Z,96.02
2016-12-03T00:38:13.302Z,96.31
2016-12-03T00:39:13.322Z,96.12
2016-12-03T00:40:13.332Z,96.31
2016-12-03T00:41:13.350Z,96.59
2016-12-03T00:42:13.368Z,96.69
2016-12-03T00:43:13.378Z,96.4
2016-12-03T00:45:13.410Z,96.69
2016-12-03T00:46:13.428Z,96.5
2016-12-03T00:47:13.449Z,96.59
2016-12-03T00:48:13.454Z,96.59
2016-12-03T00:49:28.392Z,96.5
2016-12-03T00:50:13.486Z,97.06
2016-12-03T00:53:13.530Z,97.25
2016-12-03T00:54:13.548Z,97.25
2016-12-03T00:55:13.564Z,97.25
2016-12-03T00:56:13.579Z,96.88
2016-12-03T00:57:13.589Z,97.16
2016-12-03T00:58:13.609Z,97.34
2016-12-03T00:59:13.623Z,97.63
2016-12-03T01:00:13.638Z,97.53
2016-12-03T01:01:13.654Z,97.72
2016-12-03T01:02:13.664Z,97.34
2016-12-03T01:03:13.680Z,97.25
2016-12-03T01:04:13.700Z,97.63
2016-12-03T01:05:28.635Z,97.44
2016-12-03T01:06:13.754Z,97.82
2016-12-03T01:08:13.759Z,97.53
2016-12-03T01:09:13.775Z,97.72
2016-12-03T01:10:13.789Z,98.2
2016-12-03T01:11:13.803Z,97.82
2016-12-03T01:12:13.820Z,98.29
2016-12-03T01:13:13.831Z,98.29
2016-12-03T01:14:13.845Z,98.29
2016-12-03T01:15:13.863Z,98.86
2016-12-03T01:16:13.876Z,98.01
2016-12-03T01:17:13.939Z,98.29
2016-12-03T01:18:13.908Z,98.1
2016-12-03T01:20:13.938Z,98.01
2016-12-03T01:21:28.875Z,98.01
2016-12-03T01:22:13.968Z,98.58
2016-12-03T01:23:13.986Z,98.2
2016-12-03T01:24:14.002Z,98.01
2016-12-03T01:25:14.014Z,98.29
2016-12-03T01:26:14.031Z,98.58
2016-12-03T01:27:14.046Z,98.96
2016-12-03T01:28:14.060Z,99.05
2016-12-03T01:29:14.072Z,98.67
2016-12-03T01:30:14.087Z,98.67
2016-12-03T01:31:14.102Z,99.05
2016-12-03T01:32:14.119Z,98.96
2016-12-03T01:33:14.131Z,98.96
2016-12-03T01:34:14.146Z,98.96
2016-12-03T01:36:14.483Z,99.05
2016-12-03T01:37:29.115Z,99.15
2016-12-03T01:39:14.264Z,99.66
2016-12-03T01:40:14.235Z,99.71
2016-12-03T01:41:14.251Z,99.9
2016-12-03T01:42:14.270Z,99.71
2016-12-03T01:43:14.281Z,99.33
2016-12-03T01:44:14.297Z,99.52
2016-12-03T01:45:14.312Z,99.52
2016-12-03T01:46:14.330Z,99.43
2016-12-03T01:47:14.342Z,99.99
2016-12-03T01:48:14.362Z,99.9
2016-12-03T01:49:14.371Z,99.9
2016-12-03T01:50:14.387Z,99.99
2016-12-03T01:51:14.402Z,99.99
2016-12-03T01:52:29.341Z,99.9
2016-12-03T01:53:14.431Z,99.85
2016-12-03T01:54:14.449Z,99.99
2016-12-03T01:55:14.464Z,99.99
2016-12-03T01:56:14.479Z,99.99
2016-12-03T01:57:14.492Z,99.99
2016-12-03T01:58:14.509Z,99.99
2016-12-03T01:59:14.519Z,99.9
2016-12-03T02:00:14.535Z,99.99
2016-12-03T02:01:14.561Z,99.99
2016-12-03T02:02:14.570Z,99.99
2016-12-03T02:03:14.584Z,99.99
2016-12-03T02:04:14.596Z,99.99
2016-12-03T02:05:14.609Z,99.99
2016-12-03T02:06:14.630Z,99.99
2016-12-03T02:07:14.641Z,99.99
2016-12-03T02:08:14.656Z,99.99
2016-12-03T02:11:14.704Z,99.99
2016-12-03T02:12:14.720Z,99.99
2016-12-03T02:13:14.730Z,99.99
2016-12-03T02:14:14.747Z,99.99
2016-12-03T02:15:14.758Z,99.99
2016-12-03T02:16:14.776Z,99.99
2016-12-03T02:17:14.792Z,99.99
2016-12-03T02:18:14.806Z,99.99
2016-12-03T02:19:14.822Z,99.99
2016-12-03T02:20:14.835Z,99.99
2016-12-03T02:21:14.849Z,99.99
2016-12-03T02:23:14.877Z,99.99
2016-12-03T02:24:29.816Z,99.99
2016-12-03T02:25:14.914Z,99.99
2016-12-03T02:26:14.925Z,99.99
2016-12-03T02:27:14.941Z,99.99
2016-12-03T02:28:14.956Z,99.99
2016-12-03T02:29:14.970Z,99.99
2016-12-03T02:30:14.985Z,99.99
2016-12-03T02:31:14.998Z,99.99
2016-12-03T02:32:15.013Z,99.99
2016-12-03T02:33:15.027Z,99.99
2016-12-03T02:34:15.041Z,99.99
2016-12-03T02:35:15.057Z,99.99
2016-12-03T02:36:15.072Z,99.99
2016-12-03T02:37:15.086Z,99.99
2016-12-03T02:38:15.104Z,99.99
2016-12-03T02:39:15.116Z,99.99
2016-12-03T02:40:30.055Z,99.99
2016-12-03T02:42:15.161Z,99.99
2016-12-03T02:43:15.174Z,99.99
2016-12-03T02:44:15.190Z,99.99
2016-12-03T02:45:15.207Z,99.99
2016-12-03T02:46:15.221Z,99.99
2016-12-03T02:47:15.231Z,99.99
2016-12-03T02:48:15.250Z,99.99
2016-12-03T02:49:15.259Z,99.99
2016-12-03T02:50:15.278Z,99.99
2016-12-03T02:51:15.291Z,99.99
2016-12-03T02:52:15.311Z,99.99
2016-12-03T02:53:15.624Z,99.99
2016-12-03T02:54:15.386Z,99.99
2016-12-03T02:55:15.350Z,99.99
2016-12-03T02:56:30.287Z,99.99
2016-12-03T02:57:15.376Z,99.99
2016-12-03T02:58:15.395Z,99.99
2016-12-03T02:59:15.412Z,99.99
2016-12-03T03:00:15.427Z,99.99
2016-12-03T03:01:15.441Z,99.99
2016-12-03T03:02:15.456Z,99.99
2016-12-03T03:03:15.465Z,99.99
2016-12-03T03:04:15.480Z,99.99
2016-12-03T03:05:15.499Z,99.99
2016-12-03T03:06:15.513Z,99.99
2016-12-03T03:07:15.527Z,99.99
2016-12-03T03:08:15.540Z,99.99
2016-12-03T03:11:15.583Z,99.99
2016-12-03T03:12:30.520Z,99.99
2016-12-03T03:13:15.611Z,99.99
2016-12-03T03:14:15.630Z,99.99
2016-12-03T03:15:15.640Z,99.99
2016-12-03T03:16:15.661Z,99.99
2016-12-03T03:17:15.670Z,99.99
2016-12-03T03:18:15.687Z,99.99
2016-12-03T03:19:15.705Z,99.99
2016-12-03T03:20:15.715Z,99.99
2016-12-03T03:21:15.727Z,99.99
2016-12-03T03:22:15.741Z,99.99
2016-12-03T03:23:15.757Z,99.99
2016-12-03T03:24:15.771Z,99.99
2016-12-03T03:25:15.796Z,99.99
2016-12-03T03:26:15.801Z,99.99
2016-12-03T03:27:30.739Z,99.99
2016-12-03T03:28:15.832Z,99.99
2016-12-03T03:29:15.847Z,99.99
2016-12-03T03:31:15.876Z,99.99
2016-12-03T03:32:15.892Z,99.99
2016-12-03T03:33:15.904Z,99.99
2016-12-03T03:34:15.917Z,99.99
2016-12-03T03:35:15.937Z,99.99
2016-12-03T03:36:15.947Z,99.99
2016-12-03T03:37:15.961Z,99.99
2016-12-03T03:38:15.977Z,99.99
2016-12-03T03:39:15.993Z,99.99
2016-12-03T03:40:16.002Z,99.99
2016-12-03T03:41:16.017Z,99.99
2016-12-03T03:42:16.033Z,99.99
2016-12-03T03:43:16.046Z,99.99
2016-12-03T03:44:16.067Z,99.99
2016-12-03T03:45:16.125Z,99.99
2016-12-03T03:46:16.093Z,99.99
2016-12-03T03:47:16.106Z,99.99
2016-12-03T03:48:16.120Z,99.99
2016-12-03T03:49:16.136Z,99.99
2016-12-03T03:50:16.148Z,99.99
2016-12-03T03:51:16.163Z,99.99
2016-12-03T03:52:16.178Z,99.99
2016-12-03T03:53:16.195Z,99.99
2016-12-03T03:54:16.213Z,99.99
2016-12-03T03:55:16.227Z,99.99
2016-12-03T03:56:16.237Z,99.99
2016-12-03T03:57:16.247Z,99.99
2016-12-03T03:58:16.267Z,99.99
2016-12-03T03:59:31.201Z,99.99
2016-12-03T04:00:16.295Z,99.99
2016-12-03T04:01:16.359Z,99.99
2016-12-03T04:02:16.319Z,99.99
2016-12-03T04:03:16.331Z,99.99
2016-12-03T04:04:16.348Z,99.99
2016-12-03T04:05:16.365Z,99.99
2016-12-03T04:06:16.377Z,99.99
2016-12-03T04:07:16.394Z,99.99
2016-12-03T04:08:16.406Z,99.99
2016-12-03T04:09:16.415Z,99.99
2016-12-03T04:10:16.435Z,99.99
2016-12-03T04:11:16.450Z,99.99
2016-12-03T04:13:16.473Z,99.99
2016-12-03T04:14:16.492Z,99.99
2016-12-03T04:15:31.427Z,99.99
2016-12-03T04:16:16.523Z,99.99
2016-12-03T04:18:16.547Z,99.99
2016-12-03T04:19:16.558Z,99.99
2016-12-03T04:20:16.571Z,99.99
2016-12-03T04:21:16.589Z,99.99
2016-12-03T04:22:16.602Z,99.99
2016-12-03T04:23:16.620Z,99.99
2016-12-03T04:24:16.627Z,99.99
2016-12-03T04:25:16.643Z,99.99
2016-12-03T04:26:16.659Z,99.99
2016-12-03T04:27:16.675Z,99.99
2016-12-03T04:28:16.685Z,99.99
2016-12-03T04:29:16.702Z,99.99
2016-12-03T04:30:16.718Z,99.99
2016-12-03T04:31:31.650Z,99.99
2016-12-03T04:33:16.760Z,99.99
2016-12-03T04:34:16.777Z,99.99
2016-12-03T04:35:16.785Z,99.99
2016-12-03T04:36:16.802Z,99.99
2016-12-03T04:37:16.817Z,99.99
2016-12-03T04:38:16.831Z,99.99
2016-12-03T04:39:16.844Z,99.99
2016-12-03T04:40:16.852Z,99.99
2016-12-03T04:42:16.883Z,99.99
2016-12-03T04:43:16.901Z,99.99
2016-12-03T04:44:16.914Z,99.99
2016-12-03T04:45:16.924Z,99.99
2016-12-03T04:47:31.878Z,99.99
2016-12-03T04:48:16.968Z,99.99
2016-12-03T04:49:16.984Z,99.99
2016-12-03T04:51:17.011Z,99.99
2016-12-03T04:52:17.028Z,99.99
2016-12-03T04:53:17.039Z,99.99
2016-12-03T04:54:17.054Z,99.99
2016-12-03T04:55:17.063Z,99.99
2016-12-03T04:56:17.079Z,99.99
2016-12-03T04:57:17.092Z,99.99
2016-12-03T04:58:17.134Z,99.99
2016-12-03T04:59:17.122Z,99.99
2016-12-03T05:00:17.138Z,99.99
2016-12-03T05:02:32.089Z,99.99
2016-12-03T05:03:17.177Z,99.99
2016-12-03T05:04:17.194Z,99.99
2016-12-03T05:05:17.207Z,99.99
2016-12-03T05:06:17.221Z,99.99
2016-12-03T05:07:17.237Z,99.99
2016-12-03T05:08:17.252Z,99.99
2016-12-03T05:09:17.266Z,99.99
2016-12-03T05:10:17.275Z,99.99
2016-12-03T05:11:17.291Z,99.99
2016-12-03T05:12:17.310Z,99.99
2016-12-03T05:13:17.321Z,99.99
2016-12-03T05:14:17.335Z,99.99
2016-12-03T05:15:17.344Z,99.99
2016-12-03T05:16:17.365Z,99.99
2016-12-03T05:18:17.391Z,99.99
2016-12-03T05:19:17.412Z,99.99
2016-12-03T05:20:17.414Z,99.99
2016-12-03T05:21:17.431Z,99.99
2016-12-03T05:22:17.443Z,99.99
2016-12-03T05:23:17.461Z,99.99
2016-12-03T05:24:17.474Z,99.99
2016-12-03T05:25:17.486Z,99.99
2016-12-03T05:26:17.501Z,99.99
2016-12-03T05:27:17.514Z,99.99
2016-12-03T05:28:17.531Z,99.99
2016-12-03T05:29:17.596Z,99.99
2016-12-03T05:30:17.555Z,99.99
2016-12-03T05:31:17.571Z,99.99
2016-12-03T05:33:17.602Z,99.99
2016-12-03T05:34:32.533Z,99.99
2016-12-03T05:35:17.625Z,99.99
2016-12-03T05:36:17.640Z,99.99
2016-12-03T05:37:17.654Z,99.99
2016-12-03T05:38:17.671Z,99.99
2016-12-03T05:39:17.682Z,99.99
2016-12-03T05:40:17.698Z,99.99
2016-12-03T05:41:17.712Z,99.99
2016-12-03T05:42:17.725Z,99.99
2016-12-03T05:43:17.734Z,99.99
2016-12-03T05:44:17.751Z,99.99
2016-12-03T05:45:17.765Z,99.99
2016-12-03T05:46:17.826Z,99.99
2016-12-03T05:47:17.794Z,99.99
2016-12-03T05:48:17.804Z,99.99
2016-12-03T05:49:17.821Z,99.99
2016-12-03T05:50:32.757Z,99.99
2016-12-03T05:51:17.850Z,99.99
2016-12-03T05:53:17.878Z,99.99
2016-12-03T05:54:17.891Z,99.99
2016-12-03T05:55:17.904Z,99.99
2016-12-03T05:56:17.919Z,99.99
2016-12-03T05:57:18.234Z,99.99
2016-12-03T05:58:17.949Z,99.99
2016-12-03T05:59:17.956Z,99.99
2016-12-03T06:00:17.974Z,99.99
2016-12-03T06:01:17.987Z,99.99
2016-12-03T06:02:18.003Z,99.99
2016-12-03T06:03:18.015Z,99.99
2016-12-03T06:04:18.030Z,99.99
2016-12-03T06:05:18.042Z,99.99
2016-12-03T06:06:32.979Z,99.99
2016-12-03T06:07:18.073Z,99.99
2016-12-03T06:08:18.087Z,99.99
2016-12-03T06:09:18.100Z,99.99
2016-12-03T06:10:18.114Z,99.99
2016-12-03T06:11:18.128Z,99.99
2016-12-03T06:12:18.142Z,99.99
2016-12-03T06:13:18.155Z,99.99
2016-12-03T06:14:18.188Z,99.99
2016-12-03T06:15:18.182Z,99.99
2016-12-03T06:16:18.198Z,99.99
2016-12-03T06:17:18.209Z,99.99
2016-12-03T06:18:18.225Z,99.99
2016-12-03T06:19:18.234Z,99.99
2016-12-03T06:20:18.257Z,99.99
2016-12-03T06:21:18.263Z,99.99
2016-12-03T06:22:33.199Z,99.99
2016-12-03T06:24:18.307Z,99.99
2016-12-03T06:25:18.318Z,99.99
2016-12-03T06:26:18.336Z,99.99
2016-12-03T06:27:18.345Z,99.99
2016-12-03T06:28:18.364Z,99.99
2016-12-03T06:29:18.378Z,99.99
2016-12-03T06:30:18.390Z,99.99
2016-12-03T06:31:18.406Z,99.99
2016-12-03T06:32:18.413Z,99.99
2016-12-03T06:33:18.431Z,99.99
2016-12-03T06:34:18.442Z,99.99
2016-12-03T06:35:18.458Z,99.99
2016-12-03T06:36:18.477Z,99.99
2016-12-03T06:37:33.407Z,99.99
2016-12-03T06:38:18.501Z,99.99
2016-12-03T06:39:18.518Z,99.99
2016-12-03T06:40:18.529Z,99.99
2016-12-03T06:41:18.541Z,99.99
2016-12-03T06:42:18.559Z,99.99
2016-12-03T06:43:18.572Z,99.99
2016-12-03T06:44:18.582Z,99.99
2016-12-03T06:45:18.598Z,99.99
2016-12-03T06:46:18.610Z,99.99
2016-12-03T06:47:18.624Z,99.99
2016-12-03T06:48:18.644Z,99.99
2016-12-03T06:49:18.656Z,99.99
2016-12-03T06:50:18.665Z,99.99
2016-12-03T06:52:18.696Z,99.99
2016-12-03T06:53:18.712Z,99.99
2016-12-03T06:54:18.724Z,99.99
2016-12-03T06:55:18.740Z,99.99
2016-12-03T06:56:18.752Z,99.99
2016-12-03T06:57:18.770Z,99.99
2016-12-03T06:58:18.782Z,99.99
2016-12-03T06:59:19.102Z,99.99
2016-12-03T07:00:18.804Z,99.99
2016-12-03T07:01:18.824Z,99.99
2016-12-03T07:02:18.836Z,99.99
2016-12-03T07:03:18.848Z,99.99
2016-12-03T07:04:18.861Z,99.99
2016-12-03T07:05:18.877Z,99.99
2016-12-03T07:06:18.895Z,99.99
2016-12-03T07:07:18.905Z,99.99
2016-12-03T07:09:33.854Z,99.99
2016-12-03T07:11:18.959Z,99.99
2016-12-03T07:13:18.990Z,99.99
2016-12-03T07:14:19.000Z,99.99
2016-12-03T07:15:19.018Z,99.99
2016-12-03T07:16:19.025Z,99.99
2016-12-03T07:17:19.040Z,99.99
2016-12-03T07:18:19.061Z,99.99
2016-12-03T07:19:19.070Z,99.99
2016-12-03T07:21:19.134Z,99.99
2016-12-03T07:22:19.110Z,99.99
2016-12-03T07:23:19.130Z,99.99
2016-12-03T07:24:19.143Z,99.99
2016-12-03T07:25:34.078Z,99.99
2016-12-03T07:27:19.182Z,99.99
2016-12-03T07:28:19.200Z,99.99
2016-12-03T07:29:19.220Z,99.99
2016-12-03T07:30:19.222Z,99.99
2016-12-03T07:31:19.240Z,99.99
2016-12-03T07:32:19.255Z,99.99
2016-12-03T07:33:19.269Z,99.99
2016-12-03T07:34:19.280Z,99.99
2016-12-03T07:35:19.295Z,99.99
2016-12-03T07:36:19.312Z,99.99
2016-12-03T07:37:19.323Z,99.99
2016-12-03T07:38:19.335Z,99.99
2016-12-03T07:39:19.361Z,99.99
2016-12-03T07:40:19.369Z,99.99
2016-12-03T07:41:34.302Z,99.99
2016-12-03T07:42:19.392Z,99.99
2016-12-03T07:43:19.405Z,99.99
2016-12-03T07:44:19.426Z,99.99
2016-12-03T07:45:19.438Z,99.99
2016-12-03T07:46:19.450Z,99.99
2016-12-03T07:47:19.517Z,99.99
2016-12-03T07:48:19.479Z,99.99
2016-12-03T07:49:19.490Z,99.99
2016-12-03T07:50:19.502Z,99.99
2016-12-03T07:51:19.520Z,99.99
2016-12-03T07:52:19.534Z,99.99
2016-12-03T07:53:19.547Z,99.99
2016-12-03T07:55:19.582Z,99.99
2016-12-03T07:56:19.593Z,99.99
2016-12-03T07:57:34.526Z,99.99
2016-12-03T07:58:19.625Z,99.99
2016-12-03T07:59:19.635Z,99.99
2016-12-03T08:00:19.649Z,99.99
2016-12-03T08:01:19.669Z,99.99
2016-12-03T08:02:19.677Z,99.99
2016-12-03T08:03:19.695Z,99.99
2016-12-03T08:04:19.703Z,99.99
2016-12-03T08:05:19.721Z,99.99
2016-12-03T08:06:19.735Z,99.99
2016-12-03T08:07:19.746Z,99.99
2016-12-03T08:08:19.764Z,99.99
2016-12-03T08:09:19.780Z,99.99
2016-12-03T08:10:19.794Z,99.99
2016-12-03T08:11:20.108Z,99.99
2016-12-03T08:12:34.744Z,99.99
2016-12-03T08:13:19.841Z,99.99
2016-12-03T08:14:19.845Z,99.99
2016-12-03T08:15:19.866Z,99.99
2016-12-03T08:16:19.878Z,99.99
2016-12-03T08:17:19.893Z,99.99
2016-12-03T08:18:19.904Z,99.99
2016-12-03T08:19:19.917Z,99.99
2016-12-03T08:20:19.934Z,99.99
2016-12-03T08:21:19.952Z,99.99
2016-12-03T08:22:19.994Z,99.99
2016-12-03T08:23:19.981Z,99.99
2016-12-03T08:24:20.045Z,99.99
2016-12-03T08:25:20.010Z,99.99
2016-12-03T08:27:20.041Z,99.99
2016-12-03T08:28:20.051Z,99.99
2016-12-03T08:29:20.062Z,99.99
2016-12-03T08:31:20.126Z,99.99
2016-12-03T08:32:20.108Z,99.99
2016-12-03T08:33:20.118Z,99.99
2016-12-03T08:34:20.134Z,99.99
2016-12-03T08:35:20.154Z,99.99
2016-12-03T08:36:20.164Z,99.99
2016-12-03T08:37:20.177Z,99.99
2016-12-03T08:38:20.194Z,99.99
2016-12-03T08:39:20.206Z,99.99
2016-12-03T08:40:20.228Z,99.99
2016-12-03T08:42:20.258Z,99.99
2016-12-03T08:43:20.272Z,99.99
2016-12-03T08:44:35.206Z,99.99
2016-12-03T08:46:20.312Z,99.99
2016-12-03T08:47:20.329Z,99.99
2016-12-03T08:48:20.344Z,99.99
2016-12-03T08:49:20.359Z,99.99
2016-12-03T08:50:20.671Z,99.99
2016-12-03T08:51:20.385Z,99.99
2016-12-03T08:52:20.403Z,99.99
2016-12-03T08:53:20.417Z,99.99
2016-12-03T08:54:20.427Z,99.99
2016-12-03T08:55:20.449Z,99.99
2016-12-03T08:56:20.457Z,99.99
2016-12-03T08:57:20.480Z,99.99
2016-12-03T08:58:20.796Z,99.99
2016-12-03T08:59:20.507Z,99.99
2016-12-03T09:00:35.443Z,99.99
2016-12-03T09:01:20.539Z,99.99
2016-12-03T09:02:20.553Z,99.99
2016-12-03T09:03:20.566Z,99.99
2016-12-03T09:04:20.582Z,99.99
2016-12-03T09:05:20.593Z,99.99
2016-12-03T09:06:20.611Z,99.99
2016-12-03T09:07:20.622Z,99.99
2016-12-03T09:08:20.641Z,99.99
2016-12-03T09:09:20.655Z,99.99
2016-12-03T09:10:20.670Z,99.99
2016-12-03T09:11:20.683Z,99.99
2016-12-03T09:12:20.701Z,99.99
2016-12-03T09:14:20.731Z,99.99
2016-12-03T09:15:20.749Z,99.99
2016-12-03T09:16:35.685Z,99.99
2016-12-03T09:17:20.777Z,99.99
2016-12-03T09:18:20.796Z,99.99
2016-12-03T09:19:20.810Z,99.99
2016-12-03T09:20:20.822Z,99.99
2016-12-03T09:21:20.839Z,99.99
2016-12-03T09:22:20.851Z,99.99
2016-12-03T09:23:20.866Z,99.99
2016-12-03T09:24:20.887Z,99.99
2016-12-03T09:25:20.901Z,99.99
2016-12-03T09:26:20.918Z,99.99
2016-12-03T09:27:20.928Z,99.99
2016-12-03T09:28:20.951Z,99.99
2016-12-03T09:29:21.014Z,99.99
2016-12-03T09:30:20.987Z,99.99
2016-12-03T09:32:35.932Z,99.99
2016-12-03T09:33:21.025Z,99.99
2016-12-03T09:34:21.042Z,99.99
2016-12-03T09:35:21.060Z,99.99
2016-12-03T09:36:21.072Z,99.99
2016-12-03T09:37:21.091Z,99.99
2016-12-03T09:38:21.101Z,99.99
2016-12-03T09:39:21.121Z,99.99
2016-12-03T09:40:21.187Z,99.99
2016-12-03T09:41:21.150Z,99.99
2016-12-03T09:42:21.168Z,99.99
2016-12-03T09:43:21.182Z,99.99
2016-12-03T09:44:21.194Z,99.99
2016-12-03T09:46:21.227Z,99.99
2016-12-03T09:47:36.169Z,99.99
2016-12-03T09:48:21.258Z,99.99
2016-12-03T09:49:21.276Z,99.99
2016-12-03T09:50:21.292Z,99.99
2016-12-03T09:51:21.311Z,99.99
2016-12-03T09:52:21.325Z,99.99
2016-12-03T09:53:21.342Z,99.99
2016-12-03T09:54:21.358Z,99.99
2016-12-03T09:55:21.371Z,99.99
2016-12-03T09:56:21.384Z,99.99
2016-12-03T09:57:21.405Z,99.99
2016-12-03T09:58:21.423Z,99.99
2016-12-03T09:59:21.439Z,99.99
2016-12-03T10:00:21.451Z,99.99
2016-12-03T10:01:21.464Z,99.99
2016-12-03T10:02:21.484Z,99.99
2016-12-03T10:03:21.501Z,99.99
2016-12-03T10:04:21.513Z,99.99
2016-12-03T10:06:21.549Z,99.99
2016-12-03T10:07:21.557Z,99.99
2016-12-03T10:08:21.576Z,99.99
2016-12-03T10:09:21.594Z,99.99
2016-12-03T10:10:21.609Z,99.99
2016-12-03T10:11:21.621Z,99.99
2016-12-03T10:12:21.643Z,99.99
2016-12-03T10:13:21.659Z,99.99
2016-12-03T10:14:21.670Z,99.99
2016-12-03T10:15:21.689Z,99.99
2016-12-03T10:16:21.701Z,99.99
2016-12-03T10:17:21.722Z,99.99
2016-12-03T10:19:36.675Z,99.99
2016-12-03T10:21:21.782Z,99.99
2016-12-03T10:22:21.801Z,99.99
2016-12-03T10:23:21.813Z,99.99
2016-12-03T10:24:21.835Z,99.99
2016-12-03T10:25:21.845Z,99.99
2016-12-03T10:26:21.862Z,99.99
2016-12-03T10:27:21.877Z,99.99
2016-12-03T10:28:21.899Z,99.85
2016-12-03T10:29:21.909Z,99.85
2016-12-03T10:30:21.930Z,99.85
2016-12-03T10:31:21.942Z,99.66
2016-12-03T10:32:21.954Z,99.29
2016-12-03T10:33:21.973Z,99.29
2016-12-03T10:34:21.987Z,99.48
2016-12-03T10:35:36.929Z,99.76
2016-12-03T10:37:22.336Z,99.57
2016-12-03T10:38:22.050Z,99.99
2016-12-03T10:39:22.069Z,99.76
2016-12-03T10:40:22.083Z,99.95
2016-12-03T10:42:22.116Z,99.48
2016-12-03T10:43:22.133Z,99.29
2016-12-03T10:44:22.145Z,99.85
2016-12-03T10:45:22.162Z,99.66
2016-12-03T10:46:22.176Z,98.82
2016-12-03T10:47:22.197Z,98.91
2016-12-03T10:50:22.250Z,99.01
2016-12-03T10:51:37.180Z,98.82
2016-12-03T10:52:22.277Z,98.72
2016-12-03T10:53:22.292Z,98.25
2016-12-03T10:54:22.306Z,98.34
2016-12-03T10:55:22.323Z,97.54
2016-12-03T10:56:22.339Z,98.15
2016-12-03T10:57:22.354Z,98.06
2016-12-03T10:58:22.372Z,98.34
2016-12-03T10:59:22.388Z,98.44
2016-12-03T11:00:22.401Z,97.96
2016-12-03T11:01:22.421Z,97.49
2016-12-03T11:02:22.435Z,98.2
2016-12-03T11:03:22.459Z,98.44
2016-12-03T11:04:22.468Z,97.58
2016-12-03T11:05:22.481Z,98.2
2016-12-03T11:06:22.499Z,97.68
2016-12-03T11:07:37.437Z,97.35
2016-12-03T11:08:22.535Z,97.54
2016-12-03T11:09:22.548Z,97.06
2016-12-03T11:10:22.562Z,96.97
2016-12-03T11:11:22.583Z,96.88
2016-12-03T11:12:22.599Z,96.78
2016-12-03T11:13:22.609Z,96.21
2016-12-03T11:14:22.626Z,96.4
2016-12-03T11:15:22.647Z,96.5
2016-12-03T11:16:22.663Z,96.88
2016-12-03T11:17:22.678Z,96.78
2016-12-03T11:18:22.696Z,96.69
2016-12-03T11:19:22.707Z,96.88
2016-12-03T11:20:22.723Z,95.93
2016-12-03T11:21:22.769Z,95.74
2016-12-03T11:22:37.681Z,95.93
2016-12-03T11:23:22.778Z,96.02
2016-12-03T11:25:22.809Z,95.45
2016-12-03T11:26:22.823Z,95.45
2016-12-03T11:27:22.850Z,95.17
2016-12-03T11:28:22.855Z,94.89
2016-12-03T11:29:22.871Z,94.51
2016-12-03T11:30:22.888Z,94.23
2016-12-03T11:31:22.908Z,94.32
2016-12-03T11:32:22.926Z,93.84
2016-12-03T11:33:22.938Z,93.94
2016-12-03T11:34:22.959Z,93.94
2016-12-03T11:35:22.975Z,93.65
2016-12-03T11:36:22.991Z,93.65
2016-12-03T11:38:23.020Z,93.65
2016-12-03T11:39:23.039Z,93.75
2016-12-03T11:40:23.056Z,93.56
2016-12-03T11:41:23.075Z,93.37
2016-12-03T11:42:23.086Z,93.27
2016-12-03T11:43:23.102Z,93.27
2016-12-03T11:44:23.422Z,92.99
2016-12-03T11:45:23.139Z,92.43
2016-12-03T11:46:23.154Z,92.24
2016-12-03T11:47:23.169Z,91.29
2016-12-03T11:48:23.184Z,91.57
2016-12-03T11:49:23.205Z,91.86
2016-12-03T11:50:23.223Z,91.48
2016-12-03T11:51:23.237Z,91.05
2016-12-03T11:52:23.255Z,90.63
2016-12-03T11:53:23.274Z,91.29
2016-12-03T11:54:38.208Z,90.48
2016-12-03T11:55:23.306Z,91.43
2016-12-03T11:56:23.321Z,90.48
2016-12-03T11:58:23.359Z,90.39
2016-12-03T11:59:23.368Z,90.2
2016-12-03T12:00:23.391Z,90.48
2016-12-03T12:01:23.408Z,90.58
2016-12-03T12:02:23.423Z,90.39
2016-12-03T12:03:23.440Z,90.48
2016-12-03T12:04:23.451Z,90.39
2016-12-03T12:05:23.523Z,90.77
2016-12-03T12:06:23.484Z,90.86
2016-12-03T12:07:23.512Z,90.95
2016-12-03T12:08:23.518Z,90.77
2016-12-03T12:09:23.534Z,90.77
2016-12-03T12:10:38.480Z,90.67
2016-12-03T12:12:23.589Z,90.29
2016-12-03T12:13:23.607Z,90.39
2016-12-03T12:14:23.626Z,90.39
2016-12-03T12:15:23.641Z,89.91
2016-12-03T12:16:23.659Z,90.39
2016-12-03T12:17:23.670Z,90.1
2016-12-03T12:18:23.694Z,89.63
2016-12-03T12:19:23.704Z,89.63
2016-12-03T12:20:23.728Z,89.53
2016-12-03T12:21:23.745Z,90.01
2016-12-03T12:22:23.756Z,89.82
2016-12-03T12:23:23.775Z,89.06
2016-12-03T12:24:23.814Z,88.87
2016-12-03T12:25:23.808Z,88.87
2016-12-03T12:26:38.749Z,88.59
2016-12-03T12:27:23.839Z,89.44
2016-12-03T12:28:23.859Z,89.15
2016-12-03T12:29:23.930Z,88.96
2016-12-03T12:30:23.894Z,88.3
2016-12-03T12:31:23.911Z,87.92
2016-12-03T12:32:23.925Z,88.21
2016-12-03T12:33:23.949Z,88.02
2016-12-03T12:34:24.014Z,87.83
2016-12-03T12:35:23.977Z,87.07
2016-12-03T12:36:23.997Z,86.88
2016-12-03T12:37:24.011Z,86.79
2016-12-03T12:38:24.033Z,86.6
2016-12-03T12:39:24.050Z,86.69
2016-12-03T12:40:24.067Z,86.12
2016-12-03T12:41:24.079Z,85.93
2016-12-03T12:42:39.022Z,86.31
2016-12-03T12:43:24.118Z,86.12
2016-12-03T12:44:24.133Z,85.84
2016-12-03T12:45:24.152Z,85.46
2016-12-03T12:46:24.165Z,85.46
2016-12-03T12:47:24.181Z,84.7
2016-12-03T12:48:24.201Z,85.27
2016-12-03T12:49:24.218Z,85.27
2016-12-03T12:50:24.235Z,84.61
2016-12-03T12:51:24.255Z,84.99
2016-12-03T12:52:24.271Z,84.99
2016-12-03T12:53:24.288Z,84.99
2016-12-03T12:54:24.303Z,84.8
2016-12-03T12:55:24.320Z,84.99
2016-12-03T12:57:39.278Z,85.55
2016-12-03T12:59:24.386Z,84.99
2016-12-03T13:00:24.407Z,84.89
2016-12-03T13:01:24.421Z,84.99
2016-12-03T13:02:24.445Z,85.27
2016-12-03T13:03:24.460Z,85.08
2016-12-03T13:04:24.474Z,85.17
2016-12-03T13:05:24.490Z,84.51
2016-12-03T13:06:24.508Z,84.99
2016-12-03T13:07:24.521Z,84.51
2016-12-03T13:08:24.543Z,85.17
2016-12-03T13:09:24.564Z,84.8
2016-12-03T13:10:24.573Z,85.46
2016-12-03T13:11:24.590Z,85.17
2016-12-03T13:12:24.609Z,84.89
2016-12-03T13:13:24.625Z,85.55
2016-12-03T13:14:24.638Z,85.17
2016-12-03T13:15:24.706Z,85.93
2016-12-03T13:16:24.673Z,85.36
2016-12-03T13:17:24.694Z,85.74
2016-12-03T13:18:24.710Z,85.55
2016-12-03T13:19:24.726Z,85.65
2016-12-03T13:20:24.744Z,85.27
2016-12-03T13:21:24.761Z,85.46
2016-12-03T13:22:24.774Z,84.99
2016-12-03T13:23:24.792Z,84.7
2016-12-03T13:24:24.811Z,85.27
2016-12-03T13:26:24.840Z,84.89
2016-12-03T13:27:24.862Z,85.74
2016-12-03T13:28:24.880Z,85.27
2016-12-03T13:29:39.816Z,84.89
2016-12-03T13:30:24.913Z,85.36
2016-12-03T13:31:24.927Z,85.46
2016-12-03T13:32:24.943Z,84.89
2016-12-03T13:33:25.011Z,85.46
2016-12-03T13:34:24.980Z,85.36
2016-12-03T13:35:24.997Z,85.55
2016-12-03T13:36:25.006Z,85.74
2016-12-03T13:37:25.025Z,85.36
2016-12-03T13:38:25.044Z,86.03
2016-12-03T13:39:25.062Z,85.55
2016-12-03T13:41:25.097Z,86.22
2016-12-03T13:43:25.123Z,86.31
2016-12-03T13:44:25.143Z,86.41
2016-12-03T13:45:40.082Z,87.45
2016-12-03T13:46:25.178Z,86.6
2016-12-03T13:47:25.195Z,86.41
2016-12-03T13:48:25.214Z,86.41
2016-12-03T13:49:25.330Z,86.55
2016-12-03T13:50:25.241Z,86.46
2016-12-03T13:51:25.262Z,86.93
2016-12-03T13:52:25.280Z,87.02
2016-12-03T13:53:25.290Z,86.83
2016-12-03T13:54:25.313Z,86.83
2016-12-03T13:55:25.328Z,86.93
2016-12-03T13:56:25.344Z,87.5